createdAt,value
2023-01-21T00:02:14.689Z,27.63
2023-01-21T00:07:16.794Z,26.08
2023-01-21T00:12:20.311Z,26.42
2023-01-21T00:17:22.510Z,46.05
2023-01-21T00:22:24.671Z,32.33
2023-01-21T00:27:28.273Z,23.33
2023-01-21T00:32:30.555Z,16.02
2023-01-21T00:37:32.777Z,15.45
2023-01-21T00:42:38.148Z,16.80
2023-01-21T00:47:41.141Z,14.57
2023-01-21T00:52:46.338Z,14.77
2023-01-21T00:57:49.857Z,13.77
2023-01-21T01:02:52.050Z,16.10
2023-01-21T01:07:54.173Z,15.80
2023-01-21T01:12:57.670Z,14.60
2023-01-21T01:17:59.713Z,14.75
2023-01-21T01:23:01.777Z,16.10
2023-01-21T01:28:05.976Z,16.38
2023-01-21T01:33:08.058Z,14.63
2023-01-21T01:38:13.075Z,13.93
2023-01-21T01:43:19.310Z,15.38
2023-01-21T01:48:27.077Z,14.73
2023-01-21T01:53:30.740Z,15.23
2023-01-21T01:58:34.440Z,14.98
2023-01-21T02:03:40.390Z,14.13
2023-01-21T02:08:44.360Z,15.10
2023-01-21T02:13:50.920Z,16.33
2023-01-21T02:19:03.216Z,14.38
2023-01-21T02:24:38.476Z,15.27
2023-01-21T02:30:07.616Z,15.18
2023-01-21T02:35:16.754Z,15.63
2023-01-21T02:40:26.123Z,14.90
2023-01-21T02:45:36.207Z,15.95
2023-01-21T02:50:44.391Z,15.95
2023-01-21T02:55:46.516Z,15.32
2023-01-21T03:01:02.963Z,14.55
2023-01-21T03:06:35.418Z,15.00
2023-01-21T03:11:38.020Z,14.82
2023-01-21T03:16:45.938Z,15.35
2023-01-21T03:21:50.420Z,15.07
2023-01-21T03:26:56.676Z,13.90
2023-01-21T03:32:04.045Z,14.90
2023-01-21T03:37:13.457Z,15.35
2023-01-21T03:42:15.849Z,14.18
2023-01-21T03:47:24.419Z,14.93
2023-01-21T03:52:28.615Z,15.05
2023-01-21T03:57:30.759Z,15.15
2023-01-21T04:02:32.994Z,15.07
2023-01-21T04:07:37.912Z,13.93
2023-01-21T04:12:39.989Z,14.70
2023-01-21T04:17:42.077Z,14.23
2023-01-21T04:22:45.672Z,15.93
2023-01-21T04:27:50.575Z,13.90
2023-01-21T04:32:52.695Z,15.25
2023-01-21T04:37:56.224Z,14.52
2023-01-21T04:42:58.394Z,15.95
2023-01-21T04:48:00.525Z,13.93
2023-01-21T04:53:04.027Z,13.93
2023-01-21T04:58:06.143Z,14.60
2023-01-21T05:03:08.268Z,13.32
2023-01-21T05:08:11.743Z,13.98
2023-01-21T05:13:13.874Z,13.82
2023-01-21T05:18:15.949Z,12.77
2023-01-21T05:23:19.503Z,13.68
2023-01-21T05:28:21.651Z,13.77
2023-01-21T05:33:23.703Z,13.50
2023-01-21T05:38:27.682Z,11.85
2023-01-21T05:43:30.744Z,13.85
2023-01-21T05:48:32.898Z,12.38
2023-01-21T05:53:36.445Z,12.38
2023-01-21T05:58:38.563Z,13.48
2023-01-21T06:03:40.736Z,12.13
2023-01-21T06:08:44.335Z,13.45
2023-01-21T06:13:46.431Z,13.07
2023-01-21T06:18:48.594Z,13.93
2023-01-21T06:23:52.080Z,14.98
2023-01-21T06:28:56.067Z,13.75
2023-01-21T06:33:58.361Z,13.40
2023-01-21T06:39:01.846Z,14.32
2023-01-21T06:44:04.293Z,20.00
2023-01-21T06:49:06.575Z,17.83
2023-01-21T06:54:10.630Z,16.80
2023-01-21T06:59:12.753Z,21.45
2023-01-21T07:04:14.942Z,15.43
2023-01-21T07:09:21.167Z,15.80
2023-01-21T07:14:23.280Z,17.23
2023-01-21T07:19:25.385Z,15.10
2023-01-21T07:24:29.091Z,14.18
2023-01-21T07:29:31.190Z,16.00
2023-01-21T07:34:33.438Z,15.70
2023-01-21T07:39:36.952Z,16.17
2023-01-21T07:44:39.036Z,17.88
2023-01-21T07:49:41.130Z,16.00
2023-01-21T07:54:44.697Z,16.98
2023-01-21T07:59:46.772Z,15.80
2023-01-21T08:04:48.937Z,16.50
2023-01-21T08:09:52.419Z,13.75
2023-01-21T08:14:54.593Z,17.70
2023-01-21T08:19:56.650Z,21.05
2023-01-21T08:25:00.154Z,16.42
2023-01-21T08:30:04.057Z,17.15
2023-01-21T08:35:07.424Z,13.23
2023-01-21T08:40:12.318Z,16.23
2023-01-21T08:45:15.458Z,18.38
2023-01-21T08:50:17.910Z,14.55
2023-01-21T08:55:23.436Z,18.48
2023-01-21T09:00:25.610Z,21.42
2023-01-21T09:05:27.724Z,15.82
2023-01-21T09:10:31.271Z,15.93
2023-01-21T09:15:38.641Z,16.08
2023-01-21T09:20:40.948Z,13.32
2023-01-21T09:25:44.620Z,15.43
2023-01-21T09:30:47.224Z,14.05
2023-01-21T09:35:53.834Z,12.23
2023-01-21T09:41:04.554Z,12.48
2023-01-21T09:46:17.228Z,11.43
2023-01-21T09:51:24.751Z,12.65
2023-01-21T09:56:34.512Z,11.82
2023-01-21T10:01:40.353Z,10.07
2023-01-21T10:06:50.275Z,10.35
2023-01-21T10:12:10.448Z,10.48
2023-01-21T10:17:18.340Z,8.52
2023-01-21T10:22:24.857Z,9.88
2023-01-21T10:27:32.246Z,8.60
2023-01-21T10:32:36.982Z,7.70
2023-01-21T10:37:46.187Z,6.05
2023-01-21T10:42:58.772Z,6.00
2023-01-21T10:48:10.037Z,5.72
2023-01-21T10:53:20.491Z,3.67
2023-01-21T10:58:30.673Z,4.50
2023-01-21T11:03:38.061Z,3.88
2023-01-21T11:08:43.101Z,3.65
2023-01-21T11:13:46.676Z,3.45
2023-01-21T11:18:48.850Z,3.45
2023-01-21T11:23:55.090Z,3.90
2023-01-21T11:29:11.727Z,3.83
2023-01-21T11:34:16.050Z,3.13
2023-01-21T11:39:18.183Z,3.28
2023-01-21T11:44:23.230Z,2.40
2023-01-21T11:49:29.654Z,2.90
2023-01-21T11:54:38.451Z,2.70
2023-01-21T11:59:47.175Z,2.83
2023-01-21T12:04:52.344Z,2.97
2023-01-21T12:10:03.141Z,2.50
2023-01-21T12:15:29.985Z,3.20
2023-01-21T12:20:37.369Z,2.38
2023-01-21T12:25:47.414Z,2.55
2023-01-21T12:31:00.840Z,2.65
2023-01-21T12:36:10.088Z,2.22
2023-01-21T12:41:16.546Z,2.45
2023-01-21T12:46:25.844Z,2.90
2023-01-21T12:51:33.437Z,3.00
2023-01-21T12:56:42.188Z,3.67
2023-01-21T13:01:53.851Z,4.90
2023-01-21T13:07:04.867Z,3.78
2023-01-21T13:12:15.432Z,4.93
2023-01-21T13:17:21.799Z,4.45
2023-01-21T13:22:33.981Z,4.50
2023-01-21T13:27:44.610Z,4.40
2023-01-21T13:32:53.366Z,4.53
2023-01-21T13:38:09.148Z,4.90
2023-01-21T13:43:29.469Z,4.40
2023-01-21T13:49:01.391Z,5.70
2023-01-21T13:54:18.391Z,6.05
2023-01-21T13:59:25.303Z,5.30
2023-01-21T14:04:34.708Z,5.03
2023-01-21T14:09:42.013Z,4.82
2023-01-21T14:20:31.629Z,5.18
2023-01-21T14:25:50.060Z,4.22
2023-01-21T14:31:01.574Z,5.05
2023-01-21T14:36:11.823Z,5.88
2023-01-21T14:41:14.143Z,5.80
2023-01-21T14:46:26.493Z,6.03
2023-01-21T14:51:31.739Z,5.75
2023-01-21T14:56:35.109Z,6.53
2023-01-21T15:01:45.908Z,5.70
2023-01-21T15:06:53.087Z,6.75
2023-01-21T15:12:01.336Z,6.70
2023-01-21T15:17:04.264Z,7.90
2023-01-21T15:22:20.369Z,7.70
2023-01-21T15:27:23.448Z,8.43
2023-01-21T15:32:29.347Z,8.15
2023-01-21T15:37:37.180Z,8.10
2023-01-21T15:42:48.495Z,8.23
2023-01-21T15:48:16.526Z,11.75
2023-01-21T15:53:42.543Z,10.55
2023-01-21T15:58:53.773Z,9.80
2023-01-21T16:04:25.199Z,9.50
2023-01-21T16:09:39.736Z,10.52
2023-01-21T16:14:55.918Z,9.20
2023-01-21T16:20:00.216Z,9.75
2023-01-21T16:25:09.069Z,10.52
2023-01-21T16:30:14.967Z,10.20
2023-01-21T16:35:17.480Z,11.00
2023-01-21T16:40:27.821Z,14.10
2023-01-21T16:45:31.933Z,10.90
2023-01-21T16:50:34.030Z,11.02
2023-01-21T16:55:44.117Z,11.75
2023-01-21T17:00:58.549Z,11.75
2023-01-21T17:06:05.380Z,11.95
2023-01-21T17:11:11.205Z,12.40
2023-01-21T17:16:23.891Z,15.57
2023-01-21T17:21:37.439Z,14.00
2023-01-21T17:26:46.288Z,17.05
2023-01-21T17:31:56.401Z,21.58
2023-01-21T17:36:59.579Z,16.65
2023-01-21T17:42:05.008Z,17.35
2023-01-21T17:47:22.845Z,13.38
2023-01-21T17:52:25.354Z,15.73
2023-01-21T17:57:37.781Z,26.92
2023-01-21T18:02:39.873Z,19.15
2023-01-21T18:07:42.247Z,16.58
2023-01-21T18:12:48.926Z,14.77
2023-01-21T18:22:57.596Z,14.82
2023-01-21T18:28:01.181Z,14.13
2023-01-21T18:33:03.464Z,14.43
2023-01-21T18:38:11.254Z,14.63
2023-01-21T18:43:15.021Z,17.20
2023-01-21T18:48:22.760Z,19.88
2023-01-21T18:53:24.963Z,15.52
2023-01-21T18:58:28.505Z,15.10
2023-01-21T19:03:30.680Z,14.55
2023-01-21T19:08:32.757Z,14.13
2023-01-21T19:13:36.274Z,12.98
2023-01-21T19:18:38.452Z,14.45
2023-01-21T19:23:42.246Z,13.70
2023-01-21T19:28:45.970Z,13.43
2023-01-21T19:33:48.139Z,12.57
2023-01-21T19:38:54.727Z,13.75
2023-01-21T19:43:58.576Z,12.25
2023-01-21T19:49:03.861Z,11.85
2023-01-21T19:54:06.054Z,12.50
2023-01-21T19:59:12.201Z,11.77
2023-01-21T20:04:14.328Z,12.57
2023-01-21T20:09:16.458Z,12.23
2023-01-21T20:14:19.989Z,10.45
2023-01-21T20:19:22.475Z,10.45
2023-01-21T20:24:24.619Z,10.38
2023-01-21T20:29:28.203Z,8.60
2023-01-21T20:34:30.348Z,10.10
2023-01-21T20:39:33.675Z,10.25
2023-01-21T20:44:37.215Z,9.30
2023-01-21T20:49:39.389Z,8.77
2023-01-21T20:54:41.508Z,8.07
2023-01-21T20:59:45.215Z,7.72
2023-01-21T21:04:47.394Z,7.72
2023-01-21T21:09:49.545Z,8.20
2023-01-21T21:14:53.121Z,8.18
2023-01-21T21:19:55.299Z,8.02
2023-01-21T21:24:57.453Z,7.75
2023-01-21T21:30:01.054Z,8.18
2023-01-21T21:35:03.236Z,8.13
2023-01-21T21:40:07.580Z,9.63
2023-01-21T21:45:11.421Z,8.57
2023-01-21T21:50:14.975Z,9.80
2023-01-21T21:55:18.122Z,9.65
2023-01-21T22:00:25.609Z,9.55
2023-01-21T22:05:28.856Z,7.88
2023-01-21T22:10:33.993Z,9.52
2023-01-21T22:15:44.587Z,9.65
2023-01-21T22:20:51.394Z,10.00
2023-01-21T22:25:54.595Z,10.90
2023-01-21T22:31:05.321Z,10.30
2023-01-21T22:36:13.781Z,10.15
2023-01-21T22:41:18.928Z,9.68
2023-01-21T22:46:27.313Z,9.30
2023-01-21T22:51:30.367Z,9.25
2023-01-21T22:56:50.542Z,9.70
2023-01-21T23:01:55.455Z,9.32
2023-01-21T23:06:57.617Z,8.82
2023-01-21T23:11:59.692Z,9.05
2023-01-21T23:17:03.233Z,8.15
2023-01-21T23:22:07.754Z,7.82
2023-01-21T23:27:10.650Z,8.15
2023-01-21T23:32:14.188Z,7.38
2023-01-21T23:37:16.371Z,7.35
2023-01-21T23:42:18.490Z,7.47
2023-01-21T23:47:22.975Z,7.00
2023-01-21T23:52:26.031Z,6.80
2023-01-21T23:57:28.150Z,5.97
